Savery, WY

2:39 AM MDT on October 26, 2014 (GMT -0600)
Dixon AP, Dixon, WY | Change Station
CLOSE
Current Station
Airport
Location: Dixon AP, Dixon, WY,
Elevation: 6549 ft
Nearby Weather Stations

Elev 6549 ft 41.04 °N, 107.49 °W | Updated 24 minutes ago

Clear
Clear
59 °F
Feels Like 59 °F
N
23
Wind Variable Wind from SSW
Gusts 32 mph

Today
High -- | Low -- °F
--% Chance of Precip.
Yesterday
High -- | Low -- °F
Precip. -- in
7:33 AM 6:12 PM
Waxing Crescent, 6% visible
Pressure 30.05 in
Visibility 10.0 miles
Clouds Clear
Dew Point 30 °F
Humidity 33%
Rainfall 0.00 in
Snow Depth Not available.
UV 0 out of 12
Pollen 3.00 out of 12
Air Quality Not available.
Flu Activity Sporadic
METAR KDWX 260815Z AUTO 20020G28KT 10SM CLR 15/M01 A3005 RMK AO2 T01511011

More Conditions Fewer Conditions

Pressure 30.05 in
Visibility 10.0 miles
Clouds Clear
Dew Point 30 °F
Humidity 33%
Rainfall 0.00 in
Snow Depth Not available.
UV 0 out of 12
Pollen 3.00 out of 12
Air Quality Not available.
Flu Activity Sporadic
METAR KDWX 260815Z AUTO 20020G28KT 10SM CLR 15/M01 A3005 RMK AO2 T01511011

More Conditions Fewer Conditions

10-Day Weather Forecast

Almanac

Astronomy

Oct. 26, 2014 Rise Set
Actual Time 7:33 AM MDT 6:12 PM MDT
Civil Twilight 7:05 AM MDT 6:40 PM MDT
Nautical Twilight 6:32 AM MDT 7:13 PM MDT
Astronomical Twilight 6:00 AM MDT 7:44 PM MDT
Moon 10:15 AM MDT 8:25 PM MDT
Length of Visible Light 11h 35m
Length of Day
10h 39m
Tomorrow will be 2m 30s shorter.
Waxing Crescent, 6% of the Moon is Illuminated
Today
Waxing Crescent
Oct 30
First Quarter
Nov 6
Full
Nov 14
Last Quarter
Nov 22
New

Today's Extremes

State Highs State Lows

Community

WunderPhotos

Upload Photos

1,765,127 photos uploaded!

Nearby

Snow Depth

Station Depth Elevation
Battle Mountain 0 in 7440 ft
Old Battle 1 in 9920 ft
Sage Creek Basin 0 in 7850 ft
Webber Springs 0 in 9250 ft
South Brush Creek 0 in 8440 ft

Earthquake Activity

City Distance Mag. Time & Date
No recent earthquake activity has been reported nearby.
Minimum magnitude displayed is 2.5.

Coastal Water Temperatures

Place Temperature
No Stations Reporting

Nearby Weather Stations